sensor_id;sensor_type;location;lat;lon;timestamp;P1;durP1;ratioP1;P2;durP2;ratioP2
68812;SDS011;55808;48.112;11.552;2022-12-01T00:01:05;144.80;;;102.70;;
68812;SDS011;55808;48.112;11.552;2022-12-01T00:03:31;142.98;;;102.78;;
68812;SDS011;55808;48.112;11.552;2022-12-01T00:06:01;128.73;;;98.22;;
68812;SDS011;55808;48.112;11.552;2022-12-01T00:08:29;133.90;;;105.95;;
68812;SDS011;55808;48.112;11.552;2022-12-01T00:11:01;135.70;;;102.13;;
68812;SDS011;55808;48.112;11.552;2022-12-01T00:13:31;136.88;;;100.63;;
68812;SDS011;55808;48.112;11.552;2022-12-01T00:15:57;131.93;;;101.68;;
68812;SDS011;55808;48.112;11.552;2022-12-01T00:18:36;139.15;;;103.70;;
68812;SDS011;55808;48.112;11.552;2022-12-01T00:21:04;126.40;;;99.17;;
68812;SDS011;55808;48.112;11.552;2022-12-01T00:23:30;136.68;;;102.35;;
68812;SDS011;55808;48.112;11.552;2022-12-01T00:26:01;139.20;;;103.53;;
68812;SDS011;55808;48.112;11.552;2022-12-01T00:28:29;153.90;;;104.93;;
68812;SDS011;55808;48.112;11.552;2022-12-01T00:30:55;154.50;;;105.77;;
68812;SDS011;55808;48.112;11.552;2022-12-01T00:33:20;151.77;;;106.47;;
68812;SDS011;55808;48.112;11.552;2022-12-01T00:35:46;165.17;;;106.93;;
68812;SDS011;55808;48.112;11.552;2022-12-01T00:38:12;159.63;;;108.13;;
68812;SDS011;55808;48.112;11.552;2022-12-01T00:40:38;172.98;;;109.68;;
68812;SDS011;55808;48.112;11.552;2022-12-01T00:43:03;169.10;;;107.00;;
68812;SDS011;55808;48.112;11.552;2022-12-01T00:45:29;150.60;;;105.20;;
68812;SDS011;55808;48.112;11.552;2022-12-01T00:47:54;148.70;;;103.17;;
68812;SDS011;55808;48.112;11.552;2022-12-01T00:50:20;149.77;;;106.70;;
68812;SDS011;55808;48.112;11.552;2022-12-01T00:52:46;141.10;;;102.50;;
68812;SDS011;55808;48.112;11.552;2022-12-01T00:55:11;156.90;;;106.43;;
68812;SDS011;55808;48.112;11.552;2022-12-01T00:57:37;174.87;;;108.10;;
68812;SDS011;55808;48.112;11.552;2022-12-01T01:00:03;144.50;;;106.70;;
68812;SDS011;55808;48.112;11.552;2022-12-01T01:02:29;159.02;;;107.95;;
68812;SDS011;55808;48.112;11.552;2022-12-01T01:04:55;156.40;;;107.47;;
68812;SDS011;55808;48.112;11.552;2022-12-01T01:07:21;146.63;;;102.10;;
68812;SDS011;55808;48.112;11.552;2022-12-01T01:09:46;174.13;;;112.47;;
68812;SDS011;55808;48.112;11.552;2022-12-01T01:12:12;169.07;;;112.93;;
68812;SDS011;55808;48.112;11.552;2022-12-01T01:14:38;171.77;;;107.67;;
68812;SDS011;55808;48.112;11.552;2022-12-01T01:17:03;179.30;;;114.73;;
68812;SDS011;55808;48.112;11.552;2022-12-01T01:19:29;153.37;;;109.87;;
68812;SDS011;55808;48.112;11.552;2022-12-01T01:21:55;169.60;;;108.00;;
68812;SDS011;55808;48.112;11.552;2022-12-01T01:24:20;134.27;;;101.93;;
68812;SDS011;55808;48.112;11.552;2022-12-01T01:26:46;166.60;;;108.33;;
68812;SDS011;55808;48.112;11.552;2022-12-01T01:29:11;135.07;;;102.73;;
68812;SDS011;55808;48.112;11.552;2022-12-01T01:31:37;153.30;;;104.07;;
68812;SDS011;55808;48.112;11.552;2022-12-01T01:34:03;141.53;;;103.97;;
68812;SDS011;55808;48.112;11.552;2022-12-01T01:36:29;134.50;;;101.60;;
68812;SDS011;55808;48.112;11.552;2022-12-01T01:38:55;152.15;;;104.43;;
68812;SDS011;55808;48.112;11.552;2022-12-01T01:41:21;145.00;;;101.70;;
68812;SDS011;55808;48.112;11.552;2022-12-01T01:43:51;131.23;;;99.38;;
68812;SDS011;55808;48.112;11.552;2022-12-01T01:46:23;142.07;;;101.63;;
68812;SDS011;55808;48.112;11.552;2022-12-01T01:51:36;135.35;;;99.68;;
68812;SDS011;55808;48.112;11.552;2022-12-01T01:54:19;124.30;;;96.80;;
68812;SDS011;55808;48.112;11.552;2022-12-01T01:56:50;126.07;;;99.10;;
68812;SDS011;55808;48.112;11.552;2022-12-01T01:59:18;126.30;;;100.55;;
68812;SDS011;55808;48.112;11.552;2022-12-01T02:01:50;128.00;;;99.80;;
68812;SDS011;55808;48.112;11.552;2022-12-01T02:04:25;128.18;;;99.07;;
68812;SDS011;55808;48.112;11.552;2022-12-01T02:06:53;121.45;;;98.65;;
68812;SDS011;55808;48.112;11.552;2022-12-01T02:09:19;123.85;;;99.00;;
68812;SDS011;55808;48.112;11.552;2022-12-01T02:12:07;120.77;;;98.90;;
68812;SDS011;55808;48.112;11.552;2022-12-01T02:31:12;124.90;;;100.03;;
68812;SDS011;55808;48.112;11.552;2022-12-01T02:34:07;140.10;;;100.18;;
68812;SDS011;55808;48.112;11.552;2022-12-01T02:36:51;133.80;;;100.63;;
68812;SDS011;55808;48.112;11.552;2022-12-01T02:39:34;131.75;;;100.60;;
68812;SDS011;55808;48.112;11.552;2022-12-01T02:42:14;148.15;;;103.30;;
68812;SDS011;55808;48.112;11.552;2022-12-01T02:45:25;116.32;;;96.82;;
68812;SDS011;55808;48.112;11.552;2022-12-01T02:47:56;150.18;;;101.65;;
68812;SDS011;55808;48.112;11.552;2022-12-01T02:50:25;152.27;;;105.57;;
68812;SDS011;55808;48.112;11.552;2022-12-01T02:52:52;150.00;;;102.55;;
68812;SDS011;55808;48.112;11.552;2022-12-01T02:55:19;147.68;;;101.70;;
68812;SDS011;55808;48.112;11.552;2022-12-01T02:57:44;139.83;;;102.00;;
68812;SDS011;55808;48.112;11.552;2022-12-01T03:00:10;162.83;;;106.50;;
68812;SDS011;55808;48.112;11.552;2022-12-01T03:05:49;128.25;;;99.68;;
68812;SDS011;55808;48.112;11.552;2022-12-01T03:11:11;139.15;;;103.22;;
68812;SDS011;55808;48.112;11.552;2022-12-01T03:14:06;160.55;;;106.05;;
68812;SDS011;55808;48.112;11.552;2022-12-01T03:19:06;157.03;;;105.20;;
68812;SDS011;55808;48.112;11.552;2022-12-01T03:21:50;155.65;;;104.80;;
68812;SDS011;55808;48.112;11.552;2022-12-01T03:24:39;144.68;;;103.78;;
68812;SDS011;55808;48.112;11.552;2022-12-01T03:27:09;155.55;;;105.03;;
68812;SDS011;55808;48.112;11.552;2022-12-01T03:29:39;149.05;;;105.53;;
68812;SDS011;55808;48.112;11.552;2022-12-01T03:32:30;153.35;;;107.10;;
68812;SDS011;55808;48.112;11.552;2022-12-01T03:34:58;165.90;;;106.28;;
68812;SDS011;55808;48.112;11.552;2022-12-01T03:40:21;143.88;;;103.00;;
68812;SDS011;55808;48.112;11.552;2022-12-01T03:42:57;136.73;;;103.78;;
68812;SDS011;55808;48.112;11.552;2022-12-01T03:45:46;148.38;;;101.90;;
68812;SDS011;55808;48.112;11.552;2022-12-01T03:48:21;144.85;;;103.57;;
68812;SDS011;55808;48.112;11.552;2022-12-01T03:53:43;152.15;;;104.82;;
68812;SDS011;55808;48.112;11.552;2022-12-01T03:56:21;147.52;;;106.20;;
68812;SDS011;55808;48.112;11.552;2022-12-01T03:58:51;140.10;;;102.35;;
68812;SDS011;55808;48.112;11.552;2022-12-01T04:01:20;146.35;;;106.50;;
68812;SDS011;55808;48.112;11.552;2022-12-01T04:03:46;151.43;;;104.57;;
68812;SDS011;55808;48.112;11.552;2022-12-01T04:06:12;135.20;;;105.68;;
68812;SDS011;55808;48.112;11.552;2022-12-01T04:08:38;146.77;;;104.53;;
68812;SDS011;55808;48.112;11.552;2022-12-01T04:11:04;140.80;;;103.83;;
68812;SDS011;55808;48.112;11.552;2022-12-01T04:13:50;127.80;;;100.10;;
68812;SDS011;55808;48.112;11.552;2022-12-01T04:16:17;139.07;;;102.80;;
68812;SDS011;55808;48.112;11.552;2022-12-01T04:18:42;132.90;;;101.88;;
68812;SDS011;55808;48.112;11.552;2022-12-01T04:21:08;137.10;;;102.43;;
68812;SDS011;55808;48.112;11.552;2022-12-01T04:23:33;145.67;;;101.77;;
68812;SDS011;55808;48.112;11.552;2022-12-01T04:26:19;136.70;;;104.93;;
68812;SDS011;55808;48.112;11.552;2022-12-01T04:28:45;136.32;;;101.55;;
68812;SDS011;55808;48.112;11.552;2022-12-01T04:31:11;131.07;;;101.73;;
68812;SDS011;55808;48.112;11.552;2022-12-01T04:33:36;154.33;;;104.90;;
68812;SDS011;55808;48.112;11.552;2022-12-01T04:36:02;166.87;;;108.00;;
68812;SDS011;55808;48.112;11.552;2022-12-01T04:38:28;150.37;;;105.20;;
68812;SDS011;55808;48.112;11.552;2022-12-01T04:40:53;126.13;;;101.33;;
68812;SDS011;55808;48.112;11.552;2022-12-01T04:43:19;159.97;;;106.67;;
68812;SDS011;55808;48.112;11.552;2022-12-01T04:45:45;141.27;;;101.57;;
68812;SDS011;55808;48.112;11.552;2022-12-01T04:48:10;136.80;;;100.23;;
68812;SDS011;55808;48.112;11.552;2022-12-01T04:50:39;154.27;;;105.57;;
68812;SDS011;55808;48.112;11.552;2022-12-01T04:53:09;151.13;;;104.70;;
68812;SDS011;55808;48.112;11.552;2022-12-01T04:55:36;150.27;;;105.47;;
68812;SDS011;55808;48.112;11.552;2022-12-01T04:58:03;142.23;;;103.78;;
68812;SDS011;55808;48.112;11.552;2022-12-01T05:00:29;129.33;;;101.10;;
68812;SDS011;55808;48.112;11.552;2022-12-01T05:02:55;144.05;;;104.55;;
68812;SDS011;55808;48.112;11.552;2022-12-01T05:05:20;129.53;;;100.63;;
68812;SDS011;55808;48.112;11.552;2022-12-01T05:07:46;146.07;;;103.50;;
68812;SDS011;55808;48.112;11.552;2022-12-01T05:10:11;143.23;;;106.77;;
68812;SDS011;55808;48.112;11.552;2022-12-01T05:12:38;148.63;;;105.55;;
68812;SDS011;55808;48.112;11.552;2022-12-01T05:15:05;141.00;;;103.53;;
68812;SDS011;55808;48.112;11.552;2022-12-01T05:17:31;171.65;;;109.15;;
68812;SDS011;55808;48.112;11.552;2022-12-01T05:19:57;174.27;;;108.17;;
68812;SDS011;55808;48.112;11.552;2022-12-01T05:22:43;138.68;;;103.28;;
68812;SDS011;55808;48.112;11.552;2022-12-01T05:25:09;141.67;;;105.97;;
68812;SDS011;55808;48.112;11.552;2022-12-01T05:27:35;161.15;;;104.95;;
68812;SDS011;55808;48.112;11.552;2022-12-01T05:30:01;145.00;;;101.03;;
68812;SDS011;55808;48.112;11.552;2022-12-01T05:32:26;156.47;;;104.60;;
68812;SDS011;55808;48.112;11.552;2022-12-01T05:34:52;128.47;;;101.17;;
68812;SDS011;55808;48.112;11.552;2022-12-01T05:37:17;138.53;;;102.80;;
68812;SDS011;55808;48.112;11.552;2022-12-01T05:39:43;153.70;;;104.10;;
68812;SDS011;55808;48.112;11.552;2022-12-01T05:42:09;137.00;;;103.10;;
68812;SDS011;55808;48.112;11.552;2022-12-01T05:44:34;135.33;;;101.40;;
68812;SDS011;55808;48.112;11.552;2022-12-01T05:47:00;127.40;;;99.20;;
68812;SDS011;55808;48.112;11.552;2022-12-01T05:49:25;123.27;;;98.30;;
68812;SDS011;55808;48.112;11.552;2022-12-01T05:51:51;98.60;;;88.33;;
68812;SDS011;55808;48.112;11.552;2022-12-01T05:54:17;102.80;;;92.70;;
68812;SDS011;55808;48.112;11.552;2022-12-01T05:56:42;106.03;;;94.60;;
68812;SDS011;55808;48.112;11.552;2022-12-01T05:59:08;105.57;;;93.87;;
68812;SDS011;55808;48.112;11.552;2022-12-01T06:01:33;105.37;;;94.03;;
68812;SDS011;55808;48.112;11.552;2022-12-01T06:03:59;107.60;;;95.87;;
68812;SDS011;55808;48.112;11.552;2022-12-01T06:06:24;121.73;;;97.90;;
68812;SDS011;55808;48.112;11.552;2022-12-01T06:08:50;108.47;;;97.07;;
68812;SDS011;55808;48.112;11.552;2022-12-01T06:11:16;111.30;;;96.33;;
68812;SDS011;55808;48.112;11.552;2022-12-01T06:13:41;111.00;;;94.70;;
68812;SDS011;55808;48.112;11.552;2022-12-01T06:16:07;109.47;;;97.30;;
68812;SDS011;55808;48.112;11.552;2022-12-01T06:18:33;121.57;;;98.90;;
68812;SDS011;55808;48.112;11.552;2022-12-01T06:21:01;111.10;;;96.75;;
68812;SDS011;55808;48.112;11.552;2022-12-01T06:23:28;107.03;;;95.68;;
68812;SDS011;55808;48.112;11.552;2022-12-01T06:25:53;111.83;;;93.27;;
68812;SDS011;55808;48.112;11.552;2022-12-01T06:28:19;105.20;;;93.90;;
68812;SDS011;55808;48.112;11.552;2022-12-01T06:30:44;104.30;;;93.60;;
68812;SDS011;55808;48.112;11.552;2022-12-01T06:33:10;106.27;;;95.27;;
68812;SDS011;55808;48.112;11.552;2022-12-01T06:35:36;106.90;;;95.70;;
68812;SDS011;55808;48.112;11.552;2022-12-01T06:38:02;140.60;;;100.03;;
68812;SDS011;55808;48.112;11.552;2022-12-01T06:40:27;108.27;;;95.97;;
68812;SDS011;55808;48.112;11.552;2022-12-01T06:42:53;105.32;;;93.78;;
68812;SDS011;55808;48.112;11.552;2022-12-01T06:45:19;130.60;;;95.03;;
68812;SDS011;55808;48.112;11.552;2022-12-01T06:47:45;104.17;;;91.90;;
68812;SDS011;55808;48.112;11.552;2022-12-01T06:50:12;107.28;;;93.30;;
68812;SDS011;55808;48.112;11.552;2022-12-01T06:52:38;120.63;;;96.13;;
68812;SDS011;55808;48.112;11.552;2022-12-01T06:55:04;109.27;;;96.70;;
68812;SDS011;55808;48.112;11.552;2022-12-01T06:57:31;113.85;;;96.70;;
68812;SDS011;55808;48.112;11.552;2022-12-01T06:59:57;107.65;;;95.93;;
68812;SDS011;55808;48.112;11.552;2022-12-01T07:02:22;107.10;;;95.33;;
68812;SDS011;55808;48.112;11.552;2022-12-01T07:04:48;127.63;;;98.43;;
68812;SDS011;55808;48.112;11.552;2022-12-01T07:07:13;146.20;;;100.43;;
68812;SDS011;55808;48.112;11.552;2022-12-01T07:09:39;137.27;;;100.20;;
68812;SDS011;55808;48.112;11.552;2022-12-01T07:12:05;138.27;;;102.13;;
68812;SDS011;55808;48.112;11.552;2022-12-01T07:14:31;127.80;;;100.50;;
68812;SDS011;55808;48.112;11.552;2022-12-01T07:16:57;137.00;;;104.27;;
68812;SDS011;55808;48.112;11.552;2022-12-01T07:19:23;135.77;;;102.03;;
68812;SDS011;55808;48.112;11.552;2022-12-01T07:21:49;132.50;;;100.57;;
68812;SDS011;55808;48.112;11.552;2022-12-01T07:24:14;132.43;;;99.57;;
68812;SDS011;55808;48.112;11.552;2022-12-01T07:26:40;129.40;;;100.47;;
68812;SDS011;55808;48.112;11.552;2022-12-01T07:29:10;129.65;;;101.43;;
68812;SDS011;55808;48.112;11.552;2022-12-01T07:31:36;125.78;;;97.13;;
68812;SDS011;55808;48.112;11.552;2022-12-01T07:34:02;124.20;;;99.05;;
68812;SDS011;55808;48.112;11.552;2022-12-01T07:36:29;123.45;;;99.90;;
68812;SDS011;55808;48.112;11.552;2022-12-01T07:38:55;127.13;;;97.50;;
68812;SDS011;55808;48.112;11.552;2022-12-01T07:41:20;131.57;;;100.97;;
68812;SDS011;55808;48.112;11.552;2022-12-01T07:43:46;140.77;;;102.87;;
68812;SDS011;55808;48.112;11.552;2022-12-01T07:46:16;140.87;;;103.07;;
68812;SDS011;55808;48.112;11.552;2022-12-01T07:48:43;136.93;;;101.55;;
68812;SDS011;55808;48.112;11.552;2022-12-01T07:51:10;127.07;;;101.27;;
68812;SDS011;55808;48.112;11.552;2022-12-01T07:53:39;124.82;;;99.88;;
68812;SDS011;55808;48.112;11.552;2022-12-01T07:56:05;141.80;;;104.17;;
68812;SDS011;55808;48.112;11.552;2022-12-01T07:58:31;132.63;;;102.23;;
68812;SDS011;55808;48.112;11.552;2022-12-01T08:00:57;127.57;;;99.80;;
68812;SDS011;55808;48.112;11.552;2022-12-01T08:03:23;133.07;;;99.65;;
68812;SDS011;55808;48.112;11.552;2022-12-01T08:05:55;143.67;;;98.77;;
68812;SDS011;55808;48.112;11.552;2022-12-01T08:08:22;155.70;;;107.45;;
68812;SDS011;55808;48.112;11.552;2022-12-01T08:10:48;139.65;;;101.35;;
68812;SDS011;55808;48.112;11.552;2022-12-01T08:13:14;130.47;;;100.67;;
68812;SDS011;55808;48.112;11.552;2022-12-01T08:15:40;127.80;;;101.10;;
68812;SDS011;55808;48.112;11.552;2022-12-01T08:18:05;123.30;;;99.07;;
68812;SDS011;55808;48.112;11.552;2022-12-01T08:20:31;144.27;;;103.33;;
68812;SDS011;55808;48.112;11.552;2022-12-01T08:22:59;134.30;;;99.60;;
68812;SDS011;55808;48.112;11.552;2022-12-01T08:25:25;150.20;;;104.90;;
68812;SDS011;55808;48.112;11.552;2022-12-01T08:27:51;158.48;;;104.32;;
68812;SDS011;55808;48.112;11.552;2022-12-01T08:30:17;131.63;;;100.77;;
68812;SDS011;55808;48.112;11.552;2022-12-01T08:32:43;148.40;;;103.40;;
68812;SDS011;55808;48.112;11.552;2022-12-01T08:35:08;149.87;;;101.33;;
68812;SDS011;55808;48.112;11.552;2022-12-01T08:37:34;139.60;;;101.37;;
68812;SDS011;55808;48.112;11.552;2022-12-01T08:40:00;150.60;;;102.57;;
68812;SDS011;55808;48.112;11.552;2022-12-01T08:42:25;165.53;;;103.50;;
68812;SDS011;55808;48.112;11.552;2022-12-01T08:44:51;138.33;;;99.97;;
68812;SDS011;55808;48.112;11.552;2022-12-01T08:47:17;135.27;;;101.33;;
68812;SDS011;55808;48.112;11.552;2022-12-01T08:49:43;123.83;;;101.97;;
68812;SDS011;55808;48.112;11.552;2022-12-01T08:52:08;124.67;;;100.80;;
68812;SDS011;55808;48.112;11.552;2022-12-01T08:54:34;133.90;;;103.00;;
68812;SDS011;55808;48.112;11.552;2022-12-01T08:56:59;125.53;;;97.10;;
68812;SDS011;55808;48.112;11.552;2022-12-01T08:59:25;132.57;;;100.77;;
68812;SDS011;55808;48.112;11.552;2022-12-01T09:01:51;149.83;;;103.73;;
68812;SDS011;55808;48.112;11.552;2022-12-01T09:04:18;141.20;;;103.13;;
68812;SDS011;55808;48.112;11.552;2022-12-01T09:06:45;162.02;;;104.88;;
68812;SDS011;55808;48.112;11.552;2022-12-01T09:09:16;121.18;;;98.93;;
68812;SDS011;55808;48.112;11.552;2022-12-01T09:11:43;129.35;;;100.47;;
68812;SDS011;55808;48.112;11.552;2022-12-01T09:14:10;130.23;;;100.03;;
68812;SDS011;55808;48.112;11.552;2022-12-01T09:16:36;126.10;;;98.70;;
68812;SDS011;55808;48.112;11.552;2022-12-01T09:19:02;142.30;;;102.77;;
68812;SDS011;55808;48.112;11.552;2022-12-01T09:21:29;133.87;;;101.37;;
68812;SDS011;55808;48.112;11.552;2022-12-01T09:23:56;130.02;;;102.90;;
68812;SDS011;55808;48.112;11.552;2022-12-01T09:26:22;140.35;;;104.20;;
68812;SDS011;55808;48.112;11.552;2022-12-01T09:28:53;121.45;;;98.50;;
68812;SDS011;55808;48.112;11.552;2022-12-01T09:31:22;145.88;;;101.88;;
68812;SDS011;55808;48.112;11.552;2022-12-01T09:33:52;157.40;;;107.37;;
68812;SDS011;55808;48.112;11.552;2022-12-01T09:36:19;132.43;;;99.38;;
68812;SDS011;55808;48.112;11.552;2022-12-01T09:38:45;141.67;;;101.13;;
68812;SDS011;55808;48.112;11.552;2022-12-01T09:41:14;127.87;;;100.07;;
68812;SDS011;55808;48.112;11.552;2022-12-01T09:43:48;132.90;;;99.97;;
68812;SDS011;55808;48.112;11.552;2022-12-01T09:46:23;122.50;;;97.00;;
68812;SDS011;55808;48.112;11.552;2022-12-01T09:48:52;154.70;;;110.35;;
68812;SDS011;55808;48.112;11.552;2022-12-01T09:51:22;155.90;;;104.47;;
68812;SDS011;55808;48.112;11.552;2022-12-01T09:53:55;142.85;;;102.72;;
68812;SDS011;55808;48.112;11.552;2022-12-01T09:56:30;132.13;;;98.93;;
68812;SDS011;55808;48.112;11.552;2022-12-01T09:59:01;116.32;;;100.68;;
68812;SDS011;55808;48.112;11.552;2022-12-01T10:01:45;139.32;;;101.30;;
68812;SDS011;55808;48.112;11.552;2022-12-01T10:04:16;136.07;;;100.03;;
68812;SDS011;55808;48.112;11.552;2022-12-01T10:07:00;132.23;;;100.38;;
68812;SDS011;55808;48.112;11.552;2022-12-01T10:09:42;132.00;;;98.70;;
68812;SDS011;55808;48.112;11.552;2022-12-01T10:12:17;140.98;;;101.15;;
68812;SDS011;55808;48.112;11.552;2022-12-01T10:14:47;123.85;;;98.43;;
68812;SDS011;55808;48.112;11.552;2022-12-01T10:20:21;129.55;;;98.97;;
68812;SDS011;55808;48.112;11.552;2022-12-01T10:25:27;127.25;;;98.00;;
68812;SDS011;55808;48.112;11.552;2022-12-01T10:30:48;129.43;;;98.57;;
68812;SDS011;55808;48.112;11.552;2022-12-01T10:33:21;131.57;;;99.90;;
68812;SDS011;55808;48.112;11.552;2022-12-01T10:35:51;136.25;;;100.50;;
68812;SDS011;55808;48.112;11.552;2022-12-01T10:38:31;142.18;;;101.78;;
68812;SDS011;55808;48.112;11.552;2022-12-01T10:41:00;124.95;;;100.57;;
68812;SDS011;55808;48.112;11.552;2022-12-01T10:43:31;133.88;;;100.82;;
68812;SDS011;55808;48.112;11.552;2022-12-01T10:46:04;121.30;;;98.10;;
68812;SDS011;55808;48.112;11.552;2022-12-01T10:48:54;113.82;;;95.50;;
68812;SDS011;55808;48.112;11.552;2022-12-01T10:51:22;145.30;;;107.60;;
68812;SDS011;55808;48.112;11.552;2022-12-01T10:53:51;137.23;;;100.60;;
68812;SDS011;55808;48.112;11.552;2022-12-01T10:56:22;156.10;;;106.13;;
68812;SDS011;55808;48.112;11.552;2022-12-01T11:01:17;130.20;;;98.70;;
68812;SDS011;55808;48.112;11.552;2022-12-01T11:03:55;140.18;;;102.55;;
68812;SDS011;55808;48.112;11.552;2022-12-01T11:06:28;156.48;;;103.00;;
68812;SDS011;55808;48.112;11.552;2022-12-01T11:08:55;142.10;;;100.88;;
68812;SDS011;55808;48.112;11.552;2022-12-01T11:13:51;142.30;;;101.75;;
68812;SDS011;55808;48.112;11.552;2022-12-01T11:19:18;131.90;;;96.85;;
68812;SDS011;55808;48.112;11.552;2022-12-01T11:21:45;136.13;;;99.05;;
68812;SDS011;55808;48.112;11.552;2022-12-01T11:24:54;119.40;;;106.28;;
68812;SDS011;55808;48.112;11.552;2022-12-01T11:27:24;141.10;;;99.97;;
68812;SDS011;55808;48.112;11.552;2022-12-01T11:30:03;124.68;;;97.97;;
68812;SDS011;55808;48.112;11.552;2022-12-01T11:32:49;147.52;;;110.63;;
68812;SDS011;55808;48.112;11.552;2022-12-01T11:35:17;163.00;;;104.60;;
68812;SDS011;55808;48.112;11.552;2022-12-01T11:37:46;130.70;;;100.60;;
68812;SDS011;55808;48.112;11.552;2022-12-01T11:40:20;131.73;;;99.63;;
68812;SDS011;55808;48.112;11.552;2022-12-01T11:42:52;162.23;;;103.35;;
68812;SDS011;55808;48.112;11.552;2022-12-01T11:48:04;162.47;;;105.90;;
68812;SDS011;55808;48.112;11.552;2022-12-01T11:50:34;123.95;;;99.22;;
68812;SDS011;55808;48.112;11.552;2022-12-01T11:53:01;125.53;;;100.35;;
68812;SDS011;55808;48.112;11.552;2022-12-01T11:55:28;131.05;;;99.35;;
68812;SDS011;55808;48.112;11.552;2022-12-01T11:57:59;145.20;;;100.80;;
68812;SDS011;55808;48.112;11.552;2022-12-01T12:00:33;129.60;;;97.70;;
68812;SDS011;55808;48.112;11.552;2022-12-01T12:03:33;122.72;;;99.13;;
68812;SDS011;55808;48.112;11.552;2022-12-01T12:11:18;129.77;;;104.38;;
68812;SDS011;55808;48.112;11.552;2022-12-01T12:25:17;131.30;;;99.60;;
68812;SDS011;55808;48.112;11.552;2022-12-01T12:30:23;138.20;;;100.20;;
68812;SDS011;55808;48.112;11.552;2022-12-01T12:36:02;125.85;;;97.53;;
68812;SDS011;55808;48.112;11.552;2022-12-01T12:38:55;148.65;;;101.65;;
68812;SDS011;55808;48.112;11.552;2022-12-01T12:41:44;122.47;;;96.45;;
68812;SDS011;55808;48.112;11.552;2022-12-01T12:49:44;121.03;;;97.10;;
68812;SDS011;55808;48.112;11.552;2022-12-01T12:52:19;135.82;;;97.38;;
68812;SDS011;55808;48.112;11.552;2022-12-01T12:54:53;127.88;;;97.65;;
68812;SDS011;55808;48.112;11.552;2022-12-01T12:57:36;156.93;;;103.85;;
68812;SDS011;55808;48.112;11.552;2022-12-01T13:00:06;128.50;;;99.28;;
68812;SDS011;55808;48.112;11.552;2022-12-01T13:02:46;115.70;;;95.15;;
68812;SDS011;55808;48.112;11.552;2022-12-01T13:05:21;126.40;;;99.15;;
68812;SDS011;55808;48.112;11.552;2022-12-01T13:08:41;130.95;;;99.07;;
68812;SDS011;55808;48.112;11.552;2022-12-01T13:19:31;142.98;;;101.95;;
68812;SDS011;55808;48.112;11.552;2022-12-01T13:21:54;120.93;;;98.47;;
68812;SDS011;55808;48.112;11.552;2022-12-01T13:24:23;133.23;;;99.35;;
68812;SDS011;55808;48.112;11.552;2022-12-01T13:29:52;153.60;;;102.55;;
68812;SDS011;55808;48.112;11.552;2022-12-01T13:35:00;137.05;;;99.55;;
68812;SDS011;55808;48.112;11.552;2022-12-01T13:37:46;128.93;;;100.40;;
68812;SDS011;55808;48.112;11.552;2022-12-01T13:40:19;124.47;;;99.80;;
68812;SDS011;55808;48.112;11.552;2022-12-01T13:45:22;139.45;;;100.72;;
68812;SDS011;55808;48.112;11.552;2022-12-01T13:47:49;134.33;;;99.67;;
68812;SDS011;55808;48.112;11.552;2022-12-01T13:55:58;144.73;;;98.47;;
68812;SDS011;55808;48.112;11.552;2022-12-01T14:09:35;130.82;;;98.90;;
68812;SDS011;55808;48.112;11.552;2022-12-01T14:12:04;129.02;;;99.60;;
68812;SDS011;55808;48.112;11.552;2022-12-01T14:14:40;122.70;;;97.03;;
68812;SDS011;55808;48.112;11.552;2022-12-01T14:17:45;125.20;;;96.82;;
68812;SDS011;55808;48.112;11.552;2022-12-01T14:20:07;127.88;;;96.20;;
68812;SDS011;55808;48.112;11.552;2022-12-01T14:22:44;141.02;;;102.65;;
68812;SDS011;55808;48.112;11.552;2022-12-01T14:27:44;132.98;;;101.18;;
68812;SDS011;55808;48.112;11.552;2022-12-01T14:36:18;133.48;;;100.63;;
68812;SDS011;55808;48.112;11.552;2022-12-01T14:38:51;142.15;;;100.63;;
68812;SDS011;55808;48.112;11.552;2022-12-01T14:41:26;140.35;;;101.30;;
68812;SDS011;55808;48.112;11.552;2022-12-01T14:43:56;140.15;;;103.63;;
68812;SDS011;55808;48.112;11.552;2022-12-01T14:46:29;136.07;;;100.00;;
68812;SDS011;55808;48.112;11.552;2022-12-01T14:49:11;137.15;;;101.97;;
68812;SDS011;55808;48.112;11.552;2022-12-01T14:51:43;144.32;;;102.05;;
68812;SDS011;55808;48.112;11.552;2022-12-01T14:54:24;132.43;;;101.00;;
68812;SDS011;55808;48.112;11.552;2022-12-01T14:56:56;134.27;;;101.13;;
68812;SDS011;55808;48.112;11.552;2022-12-01T14:59:25;128.18;;;98.00;;
68812;SDS011;55808;48.112;11.552;2022-12-01T15:01:52;140.43;;;99.77;;
68812;SDS011;55808;48.112;11.552;2022-12-01T15:04:21;149.95;;;101.25;;
68812;SDS011;55808;48.112;11.552;2022-12-01T15:06:51;143.00;;;102.73;;
68812;SDS011;55808;48.112;11.552;2022-12-01T15:09:19;129.10;;;101.15;;
68812;SDS011;55808;48.112;11.552;2022-12-01T15:11:50;156.68;;;106.10;;
68812;SDS011;55808;48.112;11.552;2022-12-01T15:14:21;136.00;;;104.53;;
68812;SDS011;55808;48.112;11.552;2022-12-01T15:17:24;129.70;;;98.60;;
68812;SDS011;55808;48.112;11.552;2022-12-01T15:19:53;133.52;;;101.38;;
68812;SDS011;55808;48.112;11.552;2022-12-01T15:22:18;136.53;;;100.33;;
68812;SDS011;55808;48.112;11.552;2022-12-01T15:24:44;120.40;;;96.10;;
68812;SDS011;55808;48.112;11.552;2022-12-01T15:27:26;146.90;;;101.57;;
68812;SDS011;55808;48.112;11.552;2022-12-01T15:29:54;125.75;;;98.10;;
68812;SDS011;55808;48.112;11.552;2022-12-01T15:32:22;134.85;;;98.78;;
68812;SDS011;55808;48.112;11.552;2022-12-01T15:34:52;129.90;;;98.90;;
68812;SDS011;55808;48.112;11.552;2022-12-01T15:37:23;130.15;;;98.70;;
68812;SDS011;55808;48.112;11.552;2022-12-01T15:39:55;125.43;;;97.25;;
68812;SDS011;55808;48.112;11.552;2022-12-01T15:42:22;127.85;;;96.18;;
68812;SDS011;55808;48.112;11.552;2022-12-01T15:45:23;131.10;;;99.18;;
68812;SDS011;55808;48.112;11.552;2022-12-01T15:47:50;131.07;;;99.35;;
68812;SDS011;55808;48.112;11.552;2022-12-01T15:50:34;148.20;;;102.88;;
68812;SDS011;55808;48.112;11.552;2022-12-01T15:53:06;133.52;;;98.45;;
68812;SDS011;55808;48.112;11.552;2022-12-01T15:55:49;144.18;;;101.55;;
68812;SDS011;55808;48.112;11.552;2022-12-01T15:58:39;132.35;;;100.18;;
68812;SDS011;55808;48.112;11.552;2022-12-01T16:01:11;134.73;;;101.10;;
68812;SDS011;55808;48.112;11.552;2022-12-01T16:03:59;151.15;;;103.55;;
68812;SDS011;55808;48.112;11.552;2022-12-01T16:06:31;130.18;;;101.05;;
68812;SDS011;55808;48.112;11.552;2022-12-01T16:09:03;120.97;;;98.00;;